Time;durP1;ratioP1;P1;durP2;ratioP2;P2;SDS_P1;SDS_P2;PMS_P1;PMS_P2;Temp;Humidity;BMP_temperature;BMP_pressure;BME280_temperature;BME280_humidity;BME280_pressure;Samples;Min_cycle;Max_cycle;Signal;HPM_P1;HPM_P2
2023/10/26 00:00:01;;;;;;;20.52;11.80;;;;;;;15.28;63.26;98756.06;677844;29;1302;-95
2023/10/26 00:00:23;;;;;;;20.77;12.07;;;;;;;15.19;63.21;98746.63;678018;29;1171;-94
2023/10/26 00:00:44;;;;;;;23.13;12.20;;;;;;;15.24;63.40;98749.16;675309;29;1303;-94
2023/10/26 00:01:05;;;;;;;20.95;11.82;;;;;;;15.21;63.31;98747.47;675163;29;1205;-95
2023/10/26 00:01:26;;;;;;;19.97;11.30;;;;;;;15.27;63.19;98749.97;672483;29;1400;-94
2023/10/26 00:01:48;;;;;;;20.27;11.00;;;;;;;15.23;63.13;98744.81;680402;29;1310;-94
2023/10/26 00:02:08;;;;;;;20.70;11.13;;;;;;;15.22;63.26;98743.94;680758;29;1390;-94
2023/10/26 00:02:29;;;;;;;20.35;11.30;;;;;;;15.29;63.21;98752.53;675293;29;1159;-95
2023/10/26 00:02:50;;;;;;;18.05;11.02;;;;;;;15.41;63.28;98756.63;672864;29;1328;-94
2023/10/26 00:03:14;;;;;;;20.90;11.73;;;;;;;15.27;63.15;98757.84;677980;29;1356;-95
2023/10/26 00:03:34;;;;;;;20.48;11.90;;;;;;;15.11;63.43;98748.56;680623;29;1241;-94
2023/10/26 00:03:55;;;;;;;20.95;11.75;;;;;;;15.07;63.57;98748.63;675333;29;1351;-93
2023/10/26 00:04:16;;;;;;;17.75;10.93;;;;;;;15.11;63.54;98751.19;677302;29;1158;-94
2023/10/26 00:04:37;;;;;;;19.15;11.05;;;;;;;15.06;63.58;98746.88;677954;29;1211;-94
2023/10/26 00:05:00;;;;;;;20.30;11.75;;;;;;;15.06;63.82;98760.03;677939;29;1387;-94
2023/10/26 00:05:21;;;;;;;21.23;12.15;;;;;;;15.01;63.71;98750.53;679267;29;1242;-95
2023/10/26 00:05:42;;;;;;;18.13;11.27;;;;;;;15.07;63.96;98761.75;675371;29;1214;-93
2023/10/26 00:06:04;;;;;;;17.48;10.43;;;;;;;14.99;64.03;98750.56;671842;29;1406;-94
2023/10/26 00:06:25;;;;;;;17.50;10.50;;;;;;;15.02;64.10;98754.88;672699;29;1257;-95
2023/10/26 00:06:46;;;;;;;17.77;10.98;;;;;;;14.92;64.03;98738.47;677935;29;1201;-96
2023/10/26 00:07:06;;;;;;;16.30;11.20;;;;;;;14.94;64.03;98747.19;683124;29;1222;-95
2023/10/26 00:07:28;;;;;;;17.50;11.02;;;;;;;15.01;64.06;98756.63;677893;29;1350;-95
2023/10/26 00:07:49;;;;;;;18.20;10.65;;;;;;;15.01;64.12;98754.00;677916;29;1262;-94
2023/10/26 00:08:10;;;;;;;20.77;11.18;;;;;;;14.96;64.03;98745.38;678005;29;1192;-94
2023/10/26 00:08:33;;;;;;;19.58;11.35;;;;;;;15.00;64.00;98749.66;675621;29;1347;-95
2023/10/26 00:08:57;;;;;;;20.93;11.80;;;;;;;15.00;64.15;98752.28;682860;29;1320;-95
2023/10/26 00:09:19;;;;;;;21.00;12.07;;;;;;;14.96;64.14;98747.13;678213;29;1144;-95
2023/10/26 00:09:40;;;;;;;22.15;11.90;;;;;;;14.90;64.22;98748.13;678152;29;1227;-95
2023/10/26 00:10:03;;;;;;;19.05;10.85;;;;;;;14.98;64.14;98758.50;672996;29;1055;-96
2023/10/26 00:10:24;;;;;;;17.95;10.68;;;;;;;15.00;64.16;98768.03;672837;29;1244;-95
2023/10/26 00:10:51;;;;;;;17.45;11.55;;;;;;;14.94;64.38;98761.16;678121;29;1163;-95
2023/10/26 00:11:16;;;;;;;17.52;11.32;;;;;;;14.94;64.26;98753.28;678090;29;1212;-95
2023/10/26 00:11:40;;;;;;;19.52;11.10;;;;;;;14.95;64.08;98754.16;675431;29;1331;-94
2023/10/26 00:12:01;;;;;;;19.40;10.82;;;;;;;14.96;64.26;98761.13;677358;29;1266;-95
2023/10/26 00:12:21;;;;;;;17.10;10.70;;;;;;;14.93;64.27;98761.19;675492;29;1335;-95
2023/10/26 00:12:42;;;;;;;16.23;10.88;;;;;;;14.92;64.17;98748.97;670713;29;1283;-95
2023/10/26 00:13:03;;;;;;;15.00;10.68;;;;;;;15.00;64.23;98770.66;677367;29;1194;-94
2023/10/26 00:13:27;;;;;;;17.65;10.85;;;;;;;14.99;64.27;98758.44;678121;29;1337;-95
2023/10/26 00:13:50;;;;;;;17.65;10.82;;;;;;;15.03;64.09;98762.72;680618;29;1364;-94
2023/10/26 00:14:11;;;;;;;15.85;11.25;;;;;;;14.99;64.21;98761.06;677989;29;1128;-95
2023/10/26 00:14:33;;;;;;;15.43;10.93;;;;;;;14.97;64.23;98776.00;675416;29;1973;-95
2023/10/26 00:14:54;;;;;;;16.08;11.00;;;;;;;14.89;64.24;98757.75;678093;29;1235;-95
2023/10/26 00:15:15;;;;;;;14.52;10.23;;;;;;;14.94;64.45;98768.19;677961;29;1203;-95
2023/10/26 00:15:36;;;;;;;18.98;10.52;;;;;;;14.95;64.22;98775.19;675410;29;1259;-95
2023/10/26 00:15:57;;;;;;;19.98;10.75;;;;;;;14.97;64.18;98768.13;680527;28;1217;-96
2023/10/26 00:16:18;;;;;;;22.08;10.75;;;;;;;14.93;64.30;98771.69;675339;29;1254;-96
2023/10/26 00:16:41;;;;;;;18.55;10.55;;;;;;;14.86;64.17;98754.38;675433;29;1318;-94
2023/10/26 00:17:05;;;;;;;16.33;10.50;;;;;;;14.90;64.20;98764.78;680078;29;1402;-95
2023/10/26 00:17:26;;;;;;;15.15;10.50;;;;;;;14.87;64.37;98761.34;683138;29;1263;-94
2023/10/26 00:17:47;;;;;;;16.63;10.68;;;;;;;14.86;64.23;98775.38;677957;29;1171;-94
2023/10/26 00:18:11;;;;;;;17.52;10.60;;;;;;;14.91;64.21;98774.38;672848;29;1327;-94
2023/10/26 00:18:32;;;;;;;19.13;11.18;;;;;;;14.91;64.49;98768.25;672702;29;1148;-95
2023/10/26 00:18:53;;;;;;;21.75;11.80;;;;;;;14.97;64.58;98776.00;677931;29;1143;-95
2023/10/26 00:19:14;;;;;;;21.40;11.43;;;;;;;14.93;64.26;98774.31;675381;29;1047;-95
2023/10/26 00:19:36;;;;;;;20.65;11.60;;;;;;;14.90;64.41;98777.91;680532;29;1432;-94
2023/10/26 00:19:56;;;;;;;17.00;10.90;;;;;;;14.89;64.57;98773.53;677773;29;1256;-94
2023/10/26 00:20:17;;;;;;;15.13;10.65;;;;;;;14.80;64.42;98771.97;674965;29;1192;-95
2023/10/26 00:20:38;;;;;;;14.80;10.13;;;;;;;14.93;64.34;98783.06;680398;29;1209;-94
2023/10/26 00:21:00;;;;;;;15.10;10.10;;;;;;;14.76;64.50;98766.81;680315;29;1137;-95
2023/10/26 00:21:23;;;;;;;16.30;10.30;;;;;;;14.85;64.69;98778.88;677689;29;1267;-95
2023/10/26 00:21:44;;;;;;;17.42;10.60;;;;;;;14.76;64.85;98759.81;677947;29;1355;-95
2023/10/26 00:22:05;;;;;;;18.35;10.20;;;;;;;14.82;64.58;98757.94;680499;29;1304;-94
2023/10/26 00:22:29;;;;;;;17.20;10.50;;;;;;;14.90;64.59;98777.03;675751;29;1275;-95
2023/10/26 00:22:50;;;;;;;18.13;10.55;;;;;;;14.82;64.39;98752.69;674717;29;1229;-95
2023/10/26 00:23:12;;;;;;;18.80;10.82;;;;;;;14.83;64.43;98764.94;678174;29;1186;-95
2023/10/26 00:23:32;;;;;;;20.05;11.07;;;;;;;14.83;64.45;98765.81;680586;29;1424;-94
2023/10/26 00:23:53;;;;;;;17.93;10.90;;;;;;;14.88;64.48;98773.56;680514;29;1280;-95
2023/10/26 00:24:14;;;;;;;16.70;10.60;;;;;;;14.84;64.31;98762.28;675406;29;1269;-95
2023/10/26 00:24:37;;;;;;;15.77;10.07;;;;;;;14.87;64.60;98771.84;673901;29;1250;-95
2023/10/26 00:24:58;;;;;;;15.68;10.30;;;;;;;14.86;64.71;98775.38;667717;29;1224;-94
2023/10/26 00:25:19;;;;;;;17.30;11.32;;;;;;;14.75;64.73;98758.06;672667;29;1322;-95
2023/10/26 00:25:42;;;;;;;17.13;11.47;;;;;;;14.84;64.57;98769.28;672669;29;1302;-95
2023/10/26 00:26:03;;;;;;;16.75;11.23;;;;;;;14.86;64.55;98770.13;667599;29;1385;-95
2023/10/26 00:26:24;;;;;;;15.65;10.82;;;;;;;14.89;64.52;98767.44;672713;29;1330;-94
2023/10/26 00:26:45;;;;;;;16.70;10.80;;;;;;;14.88;64.50;98778.84;670693;29;1281;-94
2023/10/26 00:27:13;;;;;;;17.10;11.07;;;;;;;14.78;64.53;98767.66;672471;29;1290;-95
2023/10/26 00:27:40;;;;;;;20.83;11.60;;;;;;;14.80;64.57;98764.09;678172;29;1224;-94
2023/10/26 00:28:03;;;;;;;19.80;11.20;;;;;;;14.89;64.52;98776.16;672769;29;1386;-94
2023/10/26 00:28:24;;;;;;;18.33;10.82;;;;;;;14.94;64.39;98782.16;672424;29;1415;-93
2023/10/26 00:28:47;;;;;;;16.88;11.07;;;;;;;14.84;64.46;98772.78;672939;29;1268;-95
2023/10/26 00:29:09;;;;;;;16.17;10.70;;;;;;;14.82;64.68;98763.19;677937;29;1374;-95
2023/10/26 00:29:30;;;;;;;16.60;10.68;;;;;;;14.85;64.49;98773.63;675269;29;1226;-94
2023/10/26 00:29:51;;;;;;;15.90;10.60;;;;;;;14.76;64.61;98762.44;670107;29;1220;-94
2023/10/26 00:30:17;;;;;;;16.90;10.57;;;;;;;14.87;64.43;98777.09;673010;29;1236;-96
2023/10/26 00:30:37;;;;;;;17.30;10.40;;;;;;;14.86;64.54;98778.00;672824;29;1424;-94
2023/10/26 00:30:58;;;;;;;16.65;10.80;;;;;;;14.79;64.43;98769.38;669712;29;1180;-93
2023/10/26 00:31:19;;;;;;;17.08;11.27;;;;;;;14.80;64.55;98773.72;669726;29;1260;-94
2023/10/26 00:31:40;;;;;;;17.97;11.60;;;;;;;14.90;64.48;98782.28;667624;29;1341;-94
2023/10/26 00:32:01;;;;;;;18.83;11.23;;;;;;;14.80;64.57;98776.34;670079;29;1267;-94
2023/10/26 00:32:27;;;;;;;16.90;10.50;;;;;;;14.80;64.67;98777.22;667097;29;1315;-95
2023/10/26 00:32:48;;;;;;;14.98;10.20;;;;;;;14.75;64.59;98762.47;675568;29;1730;-96
2023/10/26 00:33:11;;;;;;;15.30;11.10;;;;;;;14.75;64.65;98770.34;674357;29;1424;-95
2023/10/26 00:33:35;;;;;;;16.02;11.00;;;;;;;14.77;64.41;98772.03;675123;29;1311;-95
2023/10/26 00:33:58;;;;;;;15.40;10.40;;;;;;;14.82;64.36;98784.22;680665;29;1414;-95
2023/10/26 00:34:19;;;;;;;16.08;10.10;;;;;;;14.71;64.46;98758.19;672620;29;1248;-95
2023/10/26 00:34:40;;;;;;;16.52;9.90;;;;;;;14.85;64.51;98784.13;670091;29;1899;-94
2023/10/26 00:35:05;;;;;;;17.15;10.30;;;;;;;14.62;64.84;98772.38;672725;29;1215;-93
2023/10/26 00:35:26;;;;;;;16.80;10.43;;;;;;;14.76;64.83;98779.97;672480;29;1220;-95
2023/10/26 00:35:46;;;;;;;15.38;10.35;;;;;;;14.71;64.70;98777.44;672832;29;1264;-95
2023/10/26 00:36:08;;;;;;;19.73;10.47;;;;;;;14.64;64.83;98768.81;677953;29;1148;-96
2023/10/26 00:38:23;;;;;;;15.80;10.75;;;;;;;14.77;64.87;98787.78;677292;29;680;-95
2023/10/26 00:39:03;;;;;;;14.75;9.88;;;;;;;14.79;64.46;98785.13;673425;29;720;-95
2023/10/26 00:39:45;;;;;;;15.90;9.52;;;;;;;14.83;64.37;98788.56;675630;29;701;-96
2023/10/26 00:40:25;;;;;;;18.70;10.00;;;;;;;14.78;64.45;98786.91;672902;29;705;-95
2023/10/26 00:41:01;;;;;;;16.35;9.95;;;;;;;14.75;64.47;98773.81;670183;29;1390;-95
2023/10/26 00:41:21;;;;;;;17.65;9.88;;;;;;;14.75;64.60;98784.34;672718;29;1361;-93
2023/10/26 00:41:42;;;;;;;19.40;9.90;;;;;;;14.71;64.71;98787.06;673000;29;1406;-95
2023/10/26 00:42:03;;;;;;;18.35;9.73;;;;;;;14.72;64.62;98787.03;670356;29;1264;-96
2023/10/26 00:42:30;;;;;;;18.75;9.90;;;;;;;14.66;64.50;98772.28;673288;29;1219;-95
2023/10/26 00:42:51;;;;;;;15.15;9.98;;;;;;;14.75;64.55;98779.06;672906;29;1320;-96
2023/10/26 00:43:22;;;;;;;15.10;9.93;;;;;;;14.73;64.70;98775.63;672753;29;1305;-94
2023/10/26 00:43:43;;;;;;;14.07;9.23;;;;;;;14.76;64.64;98795.72;678064;29;1246;-95
2023/10/26 00:44:04;;;;;;;14.55;9.10;;;;;;;14.67;64.77;98781.00;672851;29;1263;-93
2023/10/26 00:44:25;;;;;;;14.02;8.88;;;;;;;14.66;64.84;98774.91;670236;29;1203;-95
2023/10/26 00:44:46;;;;;;;14.50;9.18;;;;;;;14.75;64.60;98789.56;667899;29;1291;-96
2023/10/26 00:45:07;;;;;;;13.13;9.18;;;;;;;14.74;64.60;98779.97;670111;29;1271;-95
2023/10/26 00:45:35;;;;;;;13.25;9.02;;;;;;;14.84;64.50;98795.53;670552;29;1292;-95
2023/10/26 00:45:56;;;;;;;14.68;9.32;;;;;;;14.83;64.43;98791.19;667808;29;1221;-92
2023/10/26 00:50:11;;;;;;;12.48;9.43;;;;;;;14.77;64.21;98797.44;678454;29;704;-95
2023/10/26 00:50:51;;;;;;;12.43;8.80;;;;;;;14.74;64.53;98795.72;675916;29;723;-95
2023/10/26 00:51:30;;;;;;;13.60;9.35;;;;;;;14.69;64.53;98794.09;673008;29;710;-94
2023/10/26 00:52:01;;;;;;;13.25;9.20;;;;;;;14.76;64.63;98804.44;675428;29;1245;-95
2023/10/26 00:52:22;;;;;;;12.52;8.43;;;;;;;14.69;64.75;98779.19;672882;29;1299;-95
2023/10/26 00:52:44;;;;;;;12.18;8.65;;;;;;;14.73;64.77;98782.63;677936;29;1326;-95
2023/10/26 00:53:05;;;;;;;12.82;8.88;;;;;;;14.71;64.52;98785.31;672848;29;1257;-95
2023/10/26 00:53:25;;;;;;;13.27;9.10;;;;;;;14.71;64.47;98774.81;675451;29;1256;-94
2023/10/26 00:53:47;;;;;;;14.68;9.32;;;;;;;14.85;64.63;98807.75;678189;29;1400;-93
2023/10/26 00:54:11;;;;;;;16.15;10.10;;;;;;;14.74;64.38;98789.63;672874;29;1325;-95
2023/10/26 00:54:34;;;;;;;15.43;9.55;;;;;;;14.73;64.65;98786.13;672939;29;1919;-95
2023/10/26 00:54:56;;;;;;;14.45;8.95;;;;;;;14.74;64.54;98793.09;672528;29;1557;-94
2023/10/26 00:55:18;;;;;;;12.50;8.38;;;;;;;14.73;64.42;98788.75;675550;29;1262;-94
2023/10/26 00:55:39;;;;;;;12.40;8.65;;;;;;;14.73;64.63;98799.25;667382;29;1383;-95
2023/10/26 00:56:00;;;;;;;13.75;9.00;;;;;;;14.66;64.64;98789.78;670131;29;1399;-95
2023/10/26 00:56:22;;;;;;;13.20;8.93;;;;;;;14.71;64.64;98790.56;675339;29;1363;-95
2023/10/26 00:56:43;;;;;;;14.27;9.30;;;;;;;14.66;64.56;98784.53;672374;29;1259;-96
2023/10/26 00:57:04;;;;;;;14.63;9.57;;;;;;;14.74;64.47;98798.34;675304;29;1242;-95
2023/10/26 00:57:26;;;;;;;14.60;9.10;;;;;;;14.73;64.46;98796.63;678146;29;1257;-95
2023/10/26 00:57:47;;;;;;;13.70;8.77;;;;;;;14.73;64.50;98794.00;668024;29;1210;-94
2023/10/26 00:58:09;;;;;;;13.40;8.98;;;;;;;14.73;64.67;98785.25;670299;29;1313;-94
2023/10/26 00:58:31;;;;;;;12.43;9.43;;;;;;;14.78;64.44;98792.16;672953;29;1474;-95
2023/10/26 01:02:24;;;;;;;13.80;9.60;;;;;;;14.68;64.38;98798.47;680438;29;1137;-93
2023/10/26 01:02:45;;;;;;;12.88;8.98;;;;;;;14.71;64.40;98801.06;675086;29;1461;-94
2023/10/26 01:03:06;;;;;;;12.05;8.60;;;;;;;14.68;64.52;98797.63;669694;29;1243;-94
2023/10/26 01:03:30;;;;;;;15.40;9.02;;;;;;;14.62;64.25;98788.13;672528;29;1263;-95
2023/10/26 01:03:55;;;;;;;15.50;8.85;;;;;;;14.69;64.58;98804.59;675305;29;1222;-93
2023/10/26 01:04:16;;;;;;;14.02;8.70;;;;;;;14.61;64.55;98786.38;670244;29;1268;-96
2023/10/26 01:04:40;;;;;;;13.32;8.30;;;;;;;14.62;64.46;98788.13;670010;29;1412;-94
2023/10/26 01:05:00;;;;;;;15.13;8.63;;;;;;;14.71;64.50;98808.06;675201;29;1257;-95
2023/10/26 01:05:21;;;;;;;15.07;9.18;;;;;;;14.73;64.58;98812.38;669815;29;1169;-93
2023/10/26 01:05:42;;;;;;;14.03;9.00;;;;;;;14.67;64.39;98796.75;676913;29;1246;-94
2023/10/26 01:10:12;;;;;;;12.70;8.80;;;;;;;14.70;64.53;98816.84;678652;29;689;-95
2023/10/26 01:10:54;;;;;;;12.00;8.50;;;;;;;14.69;64.54;98822.97;675484;29;716;-93
2023/10/26 01:11:33;;;;;;;11.80;8.43;;;;;;;14.52;64.55;98806.66;677767;29;1386;-94
2023/10/26 01:12:12;;;;;;;12.77;8.32;;;;;;;14.52;64.90;98803.19;672959;29;693;-94
2023/10/26 01:12:47;;;;;;;13.63;8.05;;;;;;;14.58;64.92;98828.44;667803;29;1309;-95
2023/10/26 01:13:09;;;;;;;14.05;8.23;;;;;;;14.47;64.70;98805.03;670411;29;1193;-93
2023/10/26 01:13:33;;;;;;;14.25;8.85;;;;;;;14.56;64.80;98809.25;675188;29;1327;-94
2023/10/26 01:14:00;;;;;;;13.38;8.40;;;;;;;14.60;64.83;98813.53;672925;29;1240;-94
2023/10/26 01:14:21;;;;;;;12.00;8.30;;;;;;;14.62;64.77;98817.84;667290;29;1420;-95
2023/10/26 01:14:42;;;;;;;13.00;8.43;;;;;;;14.60;64.78;98821.38;672461;29;1992;-93
2023/10/26 01:15:04;;;;;;;13.27;8.70;;;;;;;14.56;64.78;98809.25;670161;29;1361;-92
2023/10/26 01:15:28;;;;;;;12.15;7.82;;;;;;;14.65;64.82;98827.44;667017;29;1255;-94
2023/10/26 01:15:49;;;;;;;10.25;7.40;;;;;;;14.57;64.92;98826.72;672634;29;1246;-94
2023/10/26 01:16:09;;;;;;;10.05;7.20;;;;;;;14.39;64.91;98808.66;670066;29;1117;-93
2023/10/26 01:16:31;;;;;;;12.30;8.20;;;;;;;14.53;65.00;98816.25;670107;29;1319;-94
2023/10/26 01:16:52;;;;;;;14.02;8.63;;;;;;;14.57;64.97;98821.47;675397;29;1370;-95
2023/10/26 01:17:14;;;;;;;16.20;8.70;;;;;;;14.49;64.49;98804.09;673342;29;1425;-95
2023/10/26 01:17:37;;;;;;;15.35;8.30;;;;;;;14.63;64.63;98822.19;675328;29;1550;-95
2023/10/26 01:17:59;;;;;;;14.60;8.02;;;;;;;14.63;64.55;98821.34;678035;29;1422;-95
2023/10/26 01:18:20;;;;;;;14.75;7.82;;;;;;;14.62;64.54;98811.75;672923;29;1279;-95
2023/10/26 01:18:41;;;;;;;14.80;7.95;;;;;;;14.55;64.32;98811.00;678284;29;1160;-96
2023/10/26 01:19:03;;;;;;;13.50;7.70;;;;;;;14.53;64.54;98804.91;677941;29;1351;-95
2023/10/26 01:19:40;;;;;;;11.38;8.00;;;;;;;14.52;64.49;98806.66;672790;29;1475;-94
2023/10/26 01:20:04;;;;;;;11.18;8.10;;;;;;;14.54;64.58;98801.38;675565;29;1321;-95
2023/10/26 01:20:25;;;;;;;11.77;8.30;;;;;;;14.59;64.35;98815.28;672845;29;1261;-95
2023/10/26 01:20:46;;;;;;;12.75;8.50;;;;;;;14.45;64.39;98815.53;672611;29;1229;-94
2023/10/26 01:21:09;;;;;;;12.32;8.18;;;;;;;14.41;64.71;98803.41;675288;29;1258;-94
2023/10/26 01:21:31;;;;;;;11.77;7.80;;;;;;;14.54;64.68;98827.63;678007;29;1442;-94
2023/10/26 01:21:53;;;;;;;12.32;8.00;;;;;;;14.42;64.64;98802.50;673551;29;1188;-96
2023/10/26 01:22:14;;;;;;;12.25;8.20;;;;;;;14.48;64.58;98810.25;670477;29;1357;-94
2023/10/26 01:22:35;;;;;;;12.50;8.27;;;;;;;14.48;64.66;98815.50;670392;29;1398;-94
2023/10/26 01:22:56;;;;;;;12.15;7.68;;;;;;;14.57;64.66;98822.31;675543;29;1272;-93
2023/10/26 01:23:19;;;;;;;12.80;7.80;;;;;;;14.44;64.21;98805.09;680627;29;1312;-95
2023/10/26 01:23:40;;;;;;;15.15;8.18;;;;;;;14.45;64.64;98812.91;671969;29;1291;-93
2023/10/26 01:24:01;;;;;;;14.32;7.82;;;;;;;14.47;64.83;98816.41;672575;29;1465;-95
2023/10/26 01:24:23;;;;;;;13.32;7.45;;;;;;;14.48;64.64;98820.75;678017;29;1354;-95
2023/10/26 01:24:47;;;;;;;11.07;7.40;;;;;;;14.45;64.76;98818.16;675254;29;1177;-94
2023/10/26 01:25:08;;;;;;;12.05;7.72;;;;;;;14.49;64.59;98824.22;672754;29;1175;-95
2023/10/26 01:25:29;;;;;;;13.82;8.35;;;;;;;14.47;64.56;98813.78;672611;29;1391;-95
2023/10/26 01:25:56;;;;;;;14.48;8.57;;;;;;;14.43;64.54;98812.09;675212;29;1351;-95
2023/10/26 01:31:50;;;;;;;12.70;8.38;;;;;;;14.44;64.56;98837.44;683494;29;1341;-94
2023/10/26 01:32:11;;;;;;;12.67;8.10;;;;;;;14.45;64.68;98831.28;682941;29;1168;-95
2023/10/26 01:32:50;;;;;;;11.52;7.78;;;;;;;14.52;64.76;98834.69;678016;29;1299;-94
2023/10/26 01:33:11;;;;;;;11.32;7.90;;;;;;;14.52;64.71;98835.53;677857;29;1398;-95
2023/10/26 01:33:32;;;;;;;12.18;8.05;;;;;;;14.50;64.64;98832.06;670467;29;1295;-95
2023/10/26 01:33:53;;;;;;;12.90;8.02;;;;;;;14.50;64.56;98825.97;670167;29;1506;-94
2023/10/26 01:34:14;;;;;;;13.37;8.63;;;;;;;14.56;64.48;98835.50;680549;29;1206;-94
2023/10/26 01:34:35;;;;;;;11.57;7.97;;;;;;;14.46;64.49;98835.66;678034;29;1891;-95
2023/10/26 01:34:55;;;;;;;11.48;8.00;;;;;;;14.41;64.57;98819.13;674953;29;1438;-94
2023/10/26 01:35:16;;;;;;;12.50;8.18;;;;;;;14.45;64.59;98822.56;675304;29;1278;-95
2023/10/26 01:35:40;;;;;;;13.80;8.82;;;;;;;14.47;64.75;98832.16;678239;29;1294;-95
2023/10/26 01:36:01;;;;;;;12.50;8.50;;;;;;;14.51;64.73;98833.81;675485;29;1397;-93
2023/10/26 01:36:22;;;;;;;11.65;8.23;;;;;;;14.49;64.70;98830.34;672731;29;1220;-93
2023/10/26 01:36:44;;;;;;;10.90;8.00;;;;;;;14.54;64.58;98838.13;670236;29;1236;-96
2023/10/26 01:37:06;;;;;;;13.70;7.80;;;;;;;14.44;64.54;98821.69;674272;29;1274;-94
2023/10/26 01:37:26;;;;;;;13.70;7.82;;;;;;;14.48;64.73;98831.25;675158;29;1319;-95
2023/10/26 01:37:47;;;;;;;14.90;7.97;;;;;;;14.50;64.78;98839.09;675471;29;1252;-95
2023/10/26 01:38:08;;;;;;;12.70;8.13;;;;;;;14.53;64.68;98834.63;677855;29;1296;-92
2023/10/26 01:38:28;;;;;;;11.90;7.93;;;;;;;14.52;64.54;98846.03;672197;29;1241;-91
2023/10/26 01:38:49;;;;;;;11.50;8.27;;;;;;;14.47;64.73;98837.41;675025;29;1242;-94
2023/10/26 01:39:14;;;;;;;11.48;8.07;;;;;;;14.49;64.55;98839.97;672672;29;1380;-93
2023/10/26 01:39:36;;;;;;;12.40;8.40;;;;;;;14.53;64.76;98837.25;672482;29;1221;-93
2023/10/26 01:39:57;;;;;;;12.50;8.40;;;;;;;14.52;64.68;98856.53;672741;29;1236;-94
2023/10/26 01:40:18;;;;;;;11.70;8.23;;;;;;;14.38;64.64;98832.31;677767;29;1230;-93
2023/10/26 01:40:41;;;;;;;10.85;7.75;;;;;;;14.53;64.73;98839.03;675410;29;1434;-93
2023/10/26 01:41:05;;;;;;;12.20;7.70;;;;;;;14.49;64.71;98840.84;675310;29;1267;-94
2023/10/26 01:41:29;;;;;;;12.32;8.02;;;;;;;14.50;64.97;98847.81;675685;29;1241;-94
2023/10/26 01:41:51;;;;;;;12.10;8.10;;;;;;;14.39;64.45;98832.28;680490;29;1325;-94
2023/10/26 01:42:12;;;;;;;13.80;8.32;;;;;;;14.49;64.59;98840.84;680734;29;1439;-94
2023/10/26 01:42:33;;;;;;;13.32;8.18;;;;;;;14.42;65.04;98844.47;677340;29;1186;-93
2023/10/26 01:42:55;;;;;;;12.20;8.25;;;;;;;14.37;64.61;98841.06;675379;29;1188;-95
2023/10/26 01:43:16;;;;;;;12.00;8.23;;;;;;;14.35;64.87;98827.13;675496;29;1306;-96
2023/10/26 01:43:37;;;;;;;11.98;8.32;;;;;;;14.43;64.90;98829.63;675767;29;1365;-95
2023/10/26 01:43:59;;;;;;;11.73;8.00;;;;;;;14.37;64.93;98838.44;670092;29;1201;-93
2023/10/26 01:44:20;;;;;;;10.10;7.55;;;;;;;14.39;64.91;98839.31;675114;29;1347;-93
2023/10/26 01:44:41;;;;;;;9.90;7.50;;;;;;;14.34;64.72;98834.16;675235;29;1327;-94
2023/10/26 01:45:02;;;;;;;8.95;7.18;;;;;;;14.42;65.13;98852.34;675167;29;1399;-93
2023/10/26 01:45:25;;;;;;;13.02;7.95;;;;;;;14.34;64.86;98835.88;678030;29;1292;-95
2023/10/26 01:45:46;;;;;;;14.35;8.48;;;;;;;14.30;65.03;98837.69;675276;29;1176;-94
2023/10/26 01:46:07;;;;;;;14.27;8.50;;;;;;;14.31;65.16;98843.84;667380;29;1312;-94
2023/10/26 01:46:27;;;;;;;11.13;7.78;;;;;;;14.38;65.00;98842.81;680911;29;1391;-94
2023/10/26 01:46:48;;;;;;;11.30;7.67;;;;;;;14.31;65.03;98841.22;674383;29;1435;-95
2023/10/26 01:47:13;;;;;;;11.38;7.38;;;;;;;14.35;64.95;98851.63;670212;29;1324;-95
2023/10/26 01:47:34;;;;;;;11.55;7.50;;;;;;;14.35;64.88;98842.88;675275;29;1161;-95
2023/10/26 01:47:55;;;;;;;11.63;7.57;;;;;;;14.32;64.86;98832.44;675301;29;1317;-96
2023/10/26 01:48:18;;;;;;;10.43;7.63;;;;;;;14.31;65.10;98830.72;670129;29;1445;-94
2023/10/26 01:48:39;;;;;;;9.60;7.18;;;;;;;14.34;65.06;98830.66;677818;29;1361;-94
2023/10/26 01:49:01;;;;;;;9.75;7.25;;;;;;;14.44;64.96;98863.69;680387;29;1121;-93
2023/10/26 01:49:22;;;;;;;10.80;7.40;;;;;;;14.37;64.87;98835.81;675327;29;1217;-94
2023/10/26 01:49:44;;;;;;;11.05;7.43;;;;;;;14.28;65.04;98830.75;675328;29;1235;-95
2023/10/26 01:50:05;;;;;;;11.02;7.38;;;;;;;14.42;64.96;98843.59;672747;29;1299;-94
2023/10/26 01:50:26;;;;;;;12.60;7.45;;;;;;;14.40;65.04;98841.03;675462;29;1286;-94
2023/10/26 01:50:47;;;;;;;13.80;7.80;;;;;;;14.34;64.86;98841.13;672694;29;1369;-95
2023/10/26 01:51:08;;;;;;;13.50;7.60;;;;;;;14.29;65.07;98837.72;674977;29;1247;-93
2023/10/26 01:51:29;;;;;;;11.52;7.50;;;;;;;14.29;65.13;98845.59;677711;29;1243;-93
2023/10/26 01:51:50;;;;;;;10.30;7.50;;;;;;;14.22;65.17;98835.25;677963;29;1311;-93
2023/10/26 01:52:10;;;;;;;10.57;7.40;;;;;;;14.35;65.14;98842.88;672523;29;1147;-94
2023/10/26 01:52:31;;;;;;;12.70;8.00;;;;;;;14.29;64.92;98849.09;675157;29;1227;-95
2023/10/26 01:52:52;;;;;;;14.63;8.00;;;;;;;14.28;65.02;98857.88;680245;29;1070;-93
2023/10/26 01:53:12;;;;;;;14.70;8.53;;;;;;;14.25;65.28;98853.53;669831;29;1268;-93
2023/10/26 01:53:33;;;;;;;14.10;8.43;;;;;;;14.29;65.25;98850.84;675298;29;1239;-94
2023/10/26 01:53:54;;;;;;;12.45;8.07;;;;;;;14.31;65.13;98842.06;677652;29;1391;-94
2023/10/26 01:54:15;;;;;;;12.10;7.93;;;;;;;14.37;65.06;98848.94;678082;29;1208;-94
2023/10/26 01:54:36;;;;;;;10.85;7.53;;;;;;;14.33;65.17;98836.78;675046;29;1903;-94
2023/10/26 01:54:57;;;;;;;11.73;7.72;;;;;;;14.34;65.07;98846.38;675196;29;1307;-96
2023/10/26 01:55:17;;;;;;;11.55;7.40;;;;;;;14.38;65.01;98841.06;677676;29;1238;-94
2023/10/26 01:55:38;;;;;;;11.18;7.35;;;;;;;14.33;64.80;98829.75;672680;29;1271;-93
2023/10/26 01:56:00;;;;;;;10.98;7.40;;;;;;;14.41;65.11;98842.75;672469;29;1238;-94
2023/10/26 01:56:21;;;;;;;11.37;7.30;;;;;;;14.39;64.74;98847.19;680226;29;1293;-94
2023/10/26 01:56:42;;;;;;;11.60;7.20;;;;;;;14.37;64.83;98836.69;675242;29;1298;-95
2023/10/26 01:57:03;;;;;;;11.27;7.30;;;;;;;14.39;64.97;98840.16;676966;29;1303;-94
2023/10/26 01:57:24;;;;;;;10.40;7.20;;;;;;;14.39;64.77;98844.56;675066;29;1244;-95
2023/10/26 01:57:45;;;;;;;12.05;7.32;;;;;;;14.41;64.83;98850.63;674193;29;1231;-94
2023/10/26 01:58:05;;;;;;;11.77;7.78;;;;;;;14.42;64.72;98838.34;671993;29;1340;-95
2023/10/26 01:58:26;;;;;;;11.95;7.75;;;;;;;14.35;64.90;98848.13;680331;29;1224;-94
2023/10/26 01:58:47;;;;;;;10.68;7.60;;;;;;;14.38;64.92;98835.81;675128;29;1319;-94
2023/10/26 01:59:08;;;;;;;10.83;7.30;;;;;;;14.42;65.06;98860.22;672394;29;1176;-93
2023/10/26 01:59:29;;;;;;;11.05;7.70;;;;;;;14.35;65.00;98840.25;675200;29;1246;-94
2023/10/26 01:59:50;;;;;;;10.05;8.02;;;;;;;14.38;64.95;98843.69;677520;29;1268;-95
2023/10/26 02:00:11;;;;;;;9.98;8.10;;;;;;;14.39;65.13;98849.81;678057;29;1134;-94
2023/10/26 02:00:35;;;;;;;10.65;7.53;;;;;;;14.29;65.15;98837.72;675227;29;1214;-94
2023/10/26 02:00:55;;;;;;;10.93;7.40;;;;;;;14.38;64.90;98848.06;677596;29;1155;-93
2023/10/26 02:01:16;;;;;;;10.70;7.30;;;;;;;14.37;65.23;98849.81;677891;29;1197;-94
2023/10/26 02:01:37;;;;;;;9.45;7.30;;;;;;;14.31;65.07;98851.69;672520;29;1336;-96
2023/10/26 02:01:58;;;;;;;10.18;7.60;;;;;;;14.34;65.05;98843.75;677662;29;1386;-94
2023/10/26 02:02:18;;;;;;;11.15;8.27;;;;;;;14.30;65.10;98834.19;677821;29;1199;-93
2023/10/26 02:02:41;;;;;;;12.07;8.40;;;;;;;14.31;65.01;98830.72;676422;29;1180;-93
2023/10/26 02:03:02;;;;;;;10.73;7.70;;;;;;;14.36;65.02;98845.47;675079;29;1267;-94
2023/10/26 02:03:25;;;;;;;10.65;7.40;;;;;;;14.34;64.84;98833.25;672698;29;1358;-95
2023/10/26 02:03:46;;;;;;;9.70;7.13;;;;;;;14.32;65.04;98837.69;672556;29;1247;-95
2023/10/26 02:04:06;;;;;;;10.20;7.55;;;;;;;14.40;64.90;98851.53;669590;29;1538;-95
2023/10/26 02:04:30;;;;;;;10.15;7.78;;;;;;;14.40;65.03;98841.03;675259;29;1141;-95
2023/10/26 02:04:50;;;;;;;9.90;7.75;;;;;;;14.40;65.03;98843.66;672602;29;1281;-94
2023/10/26 02:05:11;;;;;;;9.90;7.70;;;;;;;14.38;64.84;98840.19;667487;29;1214;-94
2023/10/26 02:05:33;;;;;;;10.65;7.53;;;;;;;14.48;64.97;98844.38;667645;29;1341;-94